Time,TemperatureF,DewpointF,PressureIn,WindDirection,WindDirectionDegrees,WindSpeedMPH,WindSpeedGustMPH,Humidity,HourlyPrecipIn,Conditions,Clouds,dailyrainin,SoftwareType,DateUTC
2013-08-12 00:00:00,80.3,75.0,30.14,East,92,0.0,-999.0,83,-99.99,,,0.00,weatherlink.com 1.10,2013-08-12 04:00:00,
2013-08-12 00:15:00,80.0,75.0,30.13,East,96,2.0,-999.0,84,-99.99,,,0.00,weatherlink.com 1.10,2013-08-12 04:15:00,
2013-08-12 00:30:00,79.5,74.0,30.13,East,96,6.0,-999.0,84,-99.99,,,0.00,weatherlink.com 1.10,2013-08-12 04:30:00,
2013-08-12 00:45:00,79.2,75.0,30.13,East,96,0.0,-999.0,86,-99.99,,,0.00,weatherlink.com 1.10,2013-08-12 04:45:00,
2013-08-12 01:00:00,78.9,74.0,30.13,East,96,0.0,-999.0,86,-99.99,,,0.00,weatherlink.com 1.10,2013-08-12 05:00:00,
2013-08-12 01:15:00,78.5,74.0,30.13,East,96,0.0,-999.0,87,-99.99,,,0.00,weatherlink.com 1.10,2013-08-12 05:15:00,
2013-08-12 01:30:00,78.3,75.0,30.14,East,96,0.0,-999.0,88,-99.99,,,0.00,weatherlink.com 1.10,2013-08-12 05:30:00,
2013-08-12 01:45:00,78.0,75.0,30.14,East,96,0.0,-999.0,89,-99.99,,,0.00,weatherlink.com 1.10,2013-08-12 05:45:00,
2013-08-12 02:00:00,77.8,74.0,30.12,East,96,0.0,-999.0,89,-99.99,,,0.00,weatherlink.com 1.10,2013-08-12 06:00:00,
2013-08-12 02:15:00,77.5,74.0,30.12,East,96,0.0,-999.0,90,-99.99,,,0.00,weatherlink.com 1.10,2013-08-12 06:15:00,
2013-08-12 02:30:00,77.2,75.0,30.11,East,96,0.0,-999.0,91,-99.99,,,0.00,weatherlink.com 1.10,2013-08-12 06:30:00,
2013-08-12 02:45:00,76.9,75.0,30.10,East,96,0.0,-999.0,92,-99.99,,,0.00,weatherlink.com 1.10,2013-08-12 06:45:00,
2013-08-12 03:00:00,76.6,75.0,30.10,East,96,0.0,-999.0,93,-99.99,,,0.00,weatherlink.com 1.10,2013-08-12 07:00:00,
2013-08-12 03:15:00,76.4,74.0,30.10,East,96,0.0,-999.0,93,-99.99,,,0.00,weatherlink.com 1.10,2013-08-12 07:15:00,
2013-08-12 03:30:00,76.1,74.0,30.09,East,96,0.0,-999.0,94,-99.99,,,0.00,weatherlink.com 1.10,2013-08-12 07:30:00,
2013-08-12 03:45:00,76.0,74.0,30.09,East,96,0.0,-999.0,94,-99.99,,,0.00,weatherlink.com 1.10,2013-08-12 07:45:00,
2013-08-12 04:00:00,76.0,75.0,30.09,East,94,0.0,-999.0,95,-99.99,,,0.00,weatherlink.com 1.10,2013-08-12 08:00:00,
2013-08-12 04:15:00,76.0,75.0,30.09,East,94,0.0,-999.0,95,-99.99,,,0.00,weatherlink.com 1.10,2013-08-12 08:15:00,
2013-08-12 04:30:00,76.0,75.0,30.09,East,94,0.0,-999.0,95,-99.99,,,0.00,weatherlink.com 1.10,2013-08-12 08:30:00,
2013-08-12 04:45:00,76.0,75.0,30.08,East,90,0.0,-999.0,95,-99.99,,,0.00,weatherlink.com 1.10,2013-08-12 08:45:00,
2013-08-12 05:00:00,76.0,75.0,30.08,East,90,0.0,-999.0,95,-99.99,,,0.00,weatherlink.com 1.10,2013-08-12 09:00:00,
2013-08-12 05:15:00,75.8,74.0,30.08,East,90,0.0,-999.0,95,-99.99,,,0.00,weatherlink.com 1.10,2013-08-12 09:15:00,
2013-08-12 05:30:00,75.8,75.0,30.08,East,90,0.0,-999.0,96,-99.99,,,0.00,weatherlink.com 1.10,2013-08-12 09:30:00,
2013-08-12 05:45:00,75.7,75.0,30.09,East,90,0.0,-999.0,96,-99.99,,,0.00,weatherlink.com 1.10,2013-08-12 09:45:00,
2013-08-12 06:00:00,75.6,74.0,30.09,East,90,0.0,-999.0,95,-99.99,,,0.00,weatherlink.com 1.10,2013-08-12 10:00:00,
2013-08-12 06:15:00,75.5,74.0,30.09,East,90,0.0,-999.0,95,-99.99,,,0.00,weatherlink.com 1.10,2013-08-12 10:15:00,
2013-08-12 06:30:00,75.3,74.0,30.10,East,90,0.0,-999.0,96,-99.99,,,0.00,weatherlink.com 1.10,2013-08-12 10:30:00,
2013-08-12 06:45:00,75.1,74.0,30.09,East,90,0.0,-999.0,96,-99.99,,,0.00,weatherlink.com 1.10,2013-08-12 10:45:00,
2013-08-12 07:00:00,75.0,74.0,30.09,East,90,0.0,-999.0,96,-99.99,,,0.00,weatherlink.com 1.10,2013-08-12 11:00:00,
2013-08-12 07:15:00,74.9,74.0,30.09,East,90,0.0,-999.0,96,-99.99,,,0.00,weatherlink.com 1.10,2013-08-12 11:15:00,
2013-08-12 07:30:00,75.1,74.0,30.10,East,90,0.0,-999.0,97,-99.99,,,0.00,weatherlink.com 1.10,2013-08-12 11:30:00,
2013-08-12 07:45:00,75.2,74.0,30.10,East,90,0.0,-999.0,97,-99.99,,,0.00,weatherlink.com 1.10,2013-08-12 11:45:00,
2013-08-12 08:00:00,75.3,74.0,30.11,East,90,0.0,-999.0,97,-99.99,,,0.00,weatherlink.com 1.10,2013-08-12 12:00:00,
2013-08-12 08:15:00,75.5,74.0,30.11,East,90,0.0,-999.0,96,-99.99,,,0.00,weatherlink.com 1.10,2013-08-12 12:15:00,
2013-08-12 08:30:00,76.6,76.0,30.10,East,89,0.0,-999.0,97,-99.99,,,0.00,weatherlink.com 1.10,2013-08-12 12:30:00,
2013-08-12 08:45:00,78.1,77.0,30.11,ENE,71,3.0,-999.0,95,-99.99,,,0.00,weatherlink.com 1.10,2013-08-12 12:45:00,
2013-08-12 09:00:00,79.7,77.0,30.11,East,100,8.0,-999.0,92,-99.99,,,0.00,weatherlink.com 1.10,2013-08-12 13:00:00,
2013-08-12 09:15:00,81.3,78.0,30.11,ESE,112,7.0,-999.0,89,-99.99,,,0.00,weatherlink.com 1.10,2013-08-12 13:15:00,
2013-08-12 09:30:00,82.7,78.0,30.10,East,90,1.0,-999.0,84,-99.99,,,0.00,weatherlink.com 1.10,2013-08-12 13:30:00,
2013-08-12 09:45:00,84.2,77.0,30.10,East,82,0.0,-999.0,80,-99.99,,,0.00,weatherlink.com 1.10,2013-08-12 13:45:00,
2013-08-12 10:01:00,85.4,76.0,30.10,East,94,5.0,-999.0,74,-99.99,,,0.00,weatherlink.com 1.10,2013-08-12 14:01:00,
2013-08-12 10:16:00,86.5,78.0,30.11,ENE,63,5.0,-999.0,76,-99.99,,,0.00,weatherlink.com 1.10,2013-08-12 14:16:00,
2013-08-12 10:31:00,87.7,75.0,30.11,NE,42,0.0,-999.0,67,-99.99,,,0.00,weatherlink.com 1.10,2013-08-12 14:31:00,
2013-08-12 10:46:00,88.8,76.0,30.11,NE,53,5.0,-999.0,66,-99.99,,,0.00,weatherlink.com 1.10,2013-08-12 14:46:00,
2013-08-12 11:01:00,89.8,76.0,30.11,NE,54,0.0,-999.0,64,-99.99,,,0.00,weatherlink.com 1.10,2013-08-12 15:01:00,
2013-08-12 11:16:00,90.6,76.0,30.10,ENE,74,10.0,-999.0,63,-99.99,,,0.00,weatherlink.com 1.10,2013-08-12 15:16:00,
2013-08-12 11:31:00,91.1,77.0,30.11,ENE,60,0.0,-999.0,64,-99.99,,,0.00,weatherlink.com 1.10,2013-08-12 15:31:00,
2013-08-12 11:46:00,91.6,78.0,30.11,ENE,69,2.0,-999.0,64,-99.99,,,0.00,weatherlink.com 1.10,2013-08-12 15:46:00,
2013-08-12 12:01:00,92.0,77.0,30.10,East,89,2.0,-999.0,61,-99.99,,,0.00,weatherlink.com 1.10,2013-08-12 16:01:00,
2013-08-12 12:16:00,92.8,78.0,30.10,NE,46,0.0,-999.0,63,-99.99,,,0.00,weatherlink.com 1.10,2013-08-12 16:16:00,
2013-08-12 12:31:00,92.8,76.0,30.10,East,97,2.0,-999.0,59,-99.99,,,0.00,weatherlink.com 1.10,2013-08-12 16:31:00,
2013-08-12 12:46:00,93.8,77.0,30.09,East,91,8.0,-999.0,59,-99.99,,,0.00,weatherlink.com 1.10,2013-08-12 16:46:00,
2013-08-12 13:01:00,93.8,77.0,30.08,East,98,8.0,-999.0,59,-99.99,,,0.00,weatherlink.com 1.10,2013-08-12 17:01:00,
2013-08-12 13:16:00,93.6,78.0,30.08,East,88,12.0,-999.0,60,-99.99,,,0.00,weatherlink.com 1.10,2013-08-12 17:16:00,
2013-08-12 13:31:00,94.4,77.0,30.07,ENE,70,3.0,-999.0,58,-99.99,,,0.00,weatherlink.com 1.10,2013-08-12 17:31:00,
2013-08-12 13:46:00,94.6,78.0,30.07,East,85,5.0,-999.0,59,-99.99,,,0.00,weatherlink.com 1.10,2013-08-12 17:46:00,
2013-08-12 14:01:00,95.4,77.0,30.07,East,84,11.0,-999.0,55,-99.99,,,0.00,weatherlink.com 1.10,2013-08-12 18:01:00,
2013-08-12 14:16:00,94.2,76.0,30.06,ENE,63,3.0,-999.0,55,-99.99,,,0.00,weatherlink.com 1.10,2013-08-12 18:16:00,
2013-08-12 14:31:00,94.8,76.0,30.05,NE,52,1.0,-999.0,55,-99.99,,,0.00,weatherlink.com 1.10,2013-08-12 18:31:00,
2013-08-12 14:46:00,95.8,74.0,30.05,NE,51,0.0,-999.0,50,-99.99,,,0.00,weatherlink.com 1.10,2013-08-12 18:46:00,
2013-08-12 15:01:00,95.5,75.0,30.05,East,86,5.0,-999.0,52,-99.99,,,0.00,weatherlink.com 1.10,2013-08-12 19:01:00,
2013-08-12 15:16:00,96.3,75.0,30.04,ESE,109,12.0,-999.0,51,-99.99,,,0.00,weatherlink.com 1.10,2013-08-12 19:16:00,
2013-08-12 15:31:00,96.4,78.0,30.04,ENE,65,0.0,-999.0,55,-99.99,,,0.00,weatherlink.com 1.10,2013-08-12 19:31:00,
2013-08-12 15:46:00,96.6,74.0,30.03,NE,53,0.0,-999.0,49,-99.99,,,0.00,weatherlink.com 1.10,2013-08-12 19:46:00,
2013-08-12 16:01:00,96.4,76.0,30.02,ENE,63,5.0,-999.0,52,-99.99,,,0.00,weatherlink.com 1.10,2013-08-12 20:01:00,
2013-08-12 16:16:00,96.1,76.0,30.02,East,94,2.0,-999.0,52,-99.99,,,0.00,weatherlink.com 1.10,2013-08-12 20:16:00,
2013-08-12 16:32:00,96.7,76.0,30.02,East,82,6.0,-999.0,52,-99.99,,,0.00,weatherlink.com 1.10,2013-08-12 20:32:00,
2013-08-12 16:47:00,96.6,76.0,30.02,SE,128,6.0,-999.0,52,-99.99,,,0.00,weatherlink.com 1.10,2013-08-12 20:47:00,
2013-08-12 17:02:00,94.5,76.0,30.02,East,99,5.0,-999.0,55,-99.99,,,0.00,weatherlink.com 1.10,2013-08-12 21:02:00,
2013-08-12 17:17:00,93.4,76.0,30.02,East,94,7.0,-999.0,57,-99.99,,,0.00,weatherlink.com 1.10,2013-08-12 21:17:00,
2013-08-12 17:32:00,95.1,78.0,30.02,ENE,78,4.0,-999.0,57,-99.99,,,0.00,weatherlink.com 1.10,2013-08-12 21:32:00,
2013-08-12 17:47:00,95.5,77.0,30.02,NE,56,6.0,-999.0,55,-99.99,,,0.00,weatherlink.com 1.10,2013-08-12 21:47:00,
2013-08-12 18:02:00,92.9,75.0,30.02,ENE,78,1.0,-999.0,56,-99.99,,,0.00,weatherlink.com 1.10,2013-08-12 22:02:00,
2013-08-12 18:17:00,91.6,76.0,30.01,ENE,65,1.0,-999.0,61,-99.99,,,0.00,weatherlink.com 1.10,2013-08-12 22:17:00,
2013-08-12 18:32:00,90.3,77.0,30.01,ENE,61,1.0,-999.0,64,-99.99,,,0.00,weatherlink.com 1.10,2013-08-12 22:32:00,
2013-08-12 18:47:00,90.7,77.0,30.01,East,84,1.0,-999.0,64,-99.99,,,0.00,weatherlink.com 1.10,2013-08-12 22:47:00,
2013-08-12 19:02:00,90.1,77.0,30.01,NNE,24,6.0,-999.0,65,-99.99,,,0.00,weatherlink.com 1.10,2013-08-12 23:02:00,
2013-08-12 19:17:00,89.9,77.0,30.01,ENE,67,6.0,-999.0,65,-99.99,,,0.00,weatherlink.com 1.10,2013-08-12 23:17:00,
2013-08-12 19:32:00,88.8,76.0,30.02,ENE,64,8.0,-999.0,66,-99.99,,,0.00,weatherlink.com 1.10,2013-08-12 23:32:00,
2013-08-12 19:47:00,88.1,75.0,30.02,ENE,76,4.0,-999.0,66,-99.99,,,0.00,weatherlink.com 1.10,2013-08-12 23:47:00,
2013-08-12 20:02:00,87.5,76.0,30.02,East,81,6.0,-999.0,68,-99.99,,,0.00,weatherlink.com 1.10,2013-08-13 00:02:00,
2013-08-12 20:17:00,86.7,76.0,30.02,ENE,74,2.0,-999.0,70,-99.99,,,0.00,weatherlink.com 1.10,2013-08-13 00:17:00,
2013-08-12 20:32:00,85.9,75.0,30.03,East,92,0.0,-999.0,70,-99.99,,,0.00,weatherlink.com 1.10,2013-08-13 00:32:00,
2013-08-12 20:47:00,85.3,75.0,30.03,ENE,71,4.0,-999.0,72,-99.99,,,0.00,weatherlink.com 1.10,2013-08-13 00:47:00,
2013-08-12 21:02:00,84.7,75.0,30.03,ENE,74,2.0,-999.0,72,-99.99,,,0.00,weatherlink.com 1.10,2013-08-13 01:02:00,
2013-08-12 21:17:00,84.2,75.0,30.04,East,79,4.0,-999.0,74,-99.99,,,0.00,weatherlink.com 1.10,2013-08-13 01:17:00,
2013-08-12 21:32:00,83.8,75.0,30.05,East,100,0.0,-999.0,74,-99.99,,,0.00,weatherlink.com 1.10,2013-08-13 01:32:00,
2013-08-12 21:47:00,83.4,74.0,30.05,East,101,0.0,-999.0,74,-99.99,,,0.00,weatherlink.com 1.10,2013-08-13 01:47:00,
2013-08-12 22:02:00,83.0,74.0,30.05,ESE,106,1.0,-999.0,75,-99.99,,,0.00,weatherlink.com 1.10,2013-08-13 02:02:00,
2013-08-12 22:17:00,82.7,74.0,30.06,East,94,1.0,-999.0,76,-99.99,,,0.00,weatherlink.com 1.10,2013-08-13 02:17:00,
2013-08-12 22:32:00,82.2,74.0,30.06,ENE,78,3.0,-999.0,77,-99.99,,,0.00,weatherlink.com 1.10,2013-08-13 02:32:00,
2013-08-12 22:47:00,81.8,74.0,30.07,East,84,3.0,-999.0,78,-99.99,,,0.00,weatherlink.com 1.10,2013-08-13 02:47:00,
2013-08-12 23:02:00,81.5,74.0,30.07,East,93,0.0,-999.0,79,-99.99,,,0.00,weatherlink.com 1.10,2013-08-13 03:02:00,
2013-08-12 23:17:00,81.1,74.0,30.07,East,86,4.0,-999.0,80,-99.99,,,0.00,weatherlink.com 1.10,2013-08-13 03:17:00,
2013-08-12 23:32:00,80.7,75.0,30.07,ENE,75,0.0,-999.0,82,-99.99,,,0.00,weatherlink.com 1.10,2013-08-13 03:32:00,
2013-08-12 23:47:00,80.3,75.0,30.07,East,89,1.0,-999.0,83,-99.99,,,0.00,weatherlink.com 1.10,2013-08-13 03:47:00,